createdAt,value
2019-04-04T00:02:19.138Z,5.35
2019-04-04T00:04:47.986Z,5.32
2019-04-04T00:07:16.393Z,5.31
2019-04-04T00:09:45.017Z,5.20
2019-04-04T00:12:13.476Z,5.11
2019-04-04T00:14:43.515Z,5.08
2019-04-04T00:17:12.110Z,5.02
2019-04-04T00:19:40.534Z,5.23
2019-04-04T00:22:08.923Z,5.19
2019-04-04T00:24:39.332Z,5.11
2019-04-04T00:27:07.618Z,5.12
2019-04-04T00:29:36.189Z,5.18
2019-04-04T00:32:04.579Z,5.17
2019-04-04T00:34:32.972Z,5.39
2019-04-04T00:37:04.407Z,5.44
2019-04-04T00:39:31.699Z,5.32
2019-04-04T00:42:00.108Z,5.30
2019-04-04T00:44:28.494Z,5.33
2019-04-04T00:46:56.981Z,5.17
2019-04-04T00:49:25.370Z,5.08
2019-04-04T00:51:53.991Z,5.11
2019-04-04T00:54:22.430Z,5.14
2019-04-04T00:56:50.936Z,5.17
2019-04-04T00:59:22.642Z,5.23
2019-04-04T01:01:49.813Z,5.18
2019-04-04T01:04:18.200Z,5.32
2019-04-04T01:06:46.742Z,5.42
2019-04-04T01:09:15.140Z,5.37
2019-04-04T01:11:43.576Z,5.28
2019-04-04T01:14:11.959Z,5.29
2019-04-04T01:16:40.363Z,5.20
2019-04-04T01:19:09.978Z,5.14
2019-04-04T01:21:38.841Z,5.12
2019-04-04T01:24:07.295Z,5.12
2019-04-04T01:26:35.942Z,5.13
2019-04-04T01:29:05.834Z,5.15
2019-04-04T01:31:34.476Z,5.16
2019-04-04T01:34:04.614Z,5.09
2019-04-04T01:36:33.015Z,5.05
2019-04-04T01:39:01.807Z,5.04
2019-04-04T01:41:30.224Z,5.05
2019-04-04T01:44:04.967Z,5.03
2019-04-04T01:46:28.835Z,5.01
2019-04-04T01:49:16.486Z,5.02
2019-04-04T01:51:45.129Z,5.06
2019-04-04T01:54:13.566Z,5.10
2019-04-04T01:56:42.292Z,5.16
2019-04-04T01:59:12.296Z,5.15
2019-04-04T02:01:40.805Z,5.19
2019-04-04T02:04:09.443Z,5.19
2019-04-04T02:06:37.944Z,5.18
2019-04-04T02:09:07.674Z,5.12
2019-04-04T02:11:37.641Z,5.07
2019-04-04T02:14:06.432Z,5.06
2019-04-04T02:16:34.893Z,5.08
2019-04-04T02:19:03.373Z,5.13
2019-04-04T02:21:31.817Z,5.20
2019-04-04T02:24:01.638Z,5.27
2019-04-04T02:26:30.391Z,5.29
2019-04-04T02:28:58.867Z,5.34
2019-04-04T02:31:28.998Z,5.34
2019-04-04T02:33:57.385Z,5.22
2019-04-04T02:36:25.781Z,5.28
2019-04-04T02:39:08.766Z,5.34
2019-04-04T02:41:37.765Z,5.30
2019-04-04T02:44:06.514Z,5.28
2019-04-04T02:46:34.923Z,5.25
2019-04-04T02:49:03.890Z,5.28
2019-04-04T02:51:32.282Z,5.23
2019-04-04T02:54:00.695Z,5.21
2019-04-04T02:56:29.517Z,5.22
2019-04-04T02:58:57.986Z,5.26
2019-04-04T03:01:26.473Z,5.44
2019-04-04T03:03:54.952Z,5.47
2019-04-04T03:06:24.474Z,5.48
2019-04-04T03:08:53.542Z,5.47
2019-04-04T03:11:22.955Z,5.48
2019-04-04T03:13:51.546Z,5.49
2019-04-04T03:16:21.614Z,5.35
2019-04-04T03:18:50.203Z,5.41
2019-04-04T03:21:22.233Z,5.47
2019-04-04T03:23:49.047Z,5.46
2019-04-04T03:28:35.211Z,5.45
2019-04-04T03:31:04.164Z,5.41
2019-04-04T03:33:32.985Z,5.48
2019-04-04T03:36:01.461Z,5.54
2019-04-04T03:38:29.908Z,5.56
2019-04-04T03:40:58.801Z,5.63
2019-04-04T03:43:27.355Z,5.71
2019-04-04T03:46:00.359Z,5.65
2019-04-04T03:48:25.881Z,5.65
2019-04-04T03:50:57.181Z,5.53
2019-04-04T03:53:24.442Z,5.61
2019-04-04T03:55:53.054Z,5.59
2019-04-04T03:58:21.450Z,5.55
2019-04-04T04:00:49.913Z,5.54
2019-04-04T04:03:22.221Z,5.56
2019-04-04T04:05:48.426Z,5.57
2019-04-04T04:08:20.978Z,5.57
2019-04-04T04:10:46.991Z,5.58
2019-04-04T04:13:17.342Z,5.61
2019-04-04T04:15:45.591Z,5.63
2019-04-04T04:18:14.172Z,5.62
2019-04-04T04:20:42.664Z,5.65
2019-04-04T04:23:11.242Z,5.71
2019-04-04T04:25:41.316Z,5.78
2019-04-04T04:28:09.782Z,5.77
2019-04-04T04:30:40.424Z,5.76
2019-04-04T04:33:08.410Z,5.83
2019-04-04T04:35:40.816Z,5.87
2019-04-04T04:38:07.081Z,5.86
2019-04-04T04:40:35.540Z,5.91
2019-04-04T04:43:04.016Z,5.91
2019-04-04T04:45:32.406Z,5.82
2019-04-04T04:48:00.813Z,5.73
2019-04-04T04:50:29.432Z,5.62
2019-04-04T04:52:57.827Z,5.62
2019-04-04T04:55:27.236Z,5.55
2019-04-04T04:57:56.787Z,5.54
2019-04-04T05:00:27.668Z,5.54
2019-04-04T05:02:55.757Z,5.50
2019-04-04T05:05:24.203Z,5.50
2019-04-04T05:07:54.843Z,5.54
2019-04-04T05:10:22.806Z,5.58
2019-04-04T05:12:53.043Z,5.66
2019-04-04T05:15:21.518Z,5.71
2019-04-04T05:17:49.937Z,5.69
2019-04-04T05:20:18.404Z,5.70
2019-04-04T05:22:46.974Z,5.64
2019-04-04T05:25:15.435Z,5.56
2019-04-04T05:27:43.830Z,5.56
2019-04-04T05:30:15.922Z,5.72
2019-04-04T05:32:42.530Z,5.67
2019-04-04T05:35:11.024Z,5.64
2019-04-04T05:37:39.396Z,5.59
2019-04-04T05:40:08.818Z,5.66
2019-04-04T05:42:37.206Z,5.63
2019-04-04T05:45:07.755Z,5.64
2019-04-04T05:47:36.547Z,5.64
2019-04-04T05:50:06.348Z,5.66
2019-04-04T05:52:34.755Z,5.29
2019-04-04T05:55:03.764Z,5.79
2019-04-04T05:57:32.140Z,5.83
2019-04-04T06:00:00.567Z,5.81
2019-04-04T06:02:29.058Z,5.84
2019-04-04T06:04:57.609Z,5.89
2019-04-04T06:07:26.022Z,5.84
2019-04-04T06:09:54.703Z,5.88
2019-04-04T06:12:25.126Z,5.90
2019-04-04T06:14:53.356Z,5.84
2019-04-04T06:17:21.759Z,5.84
2019-04-04T06:19:50.527Z,5.82
2019-04-04T06:22:19.071Z,5.76
2019-04-04T06:24:52.013Z,5.73
2019-04-04T06:27:19.214Z,5.83
2019-04-04T06:29:48.302Z,5.85
2019-04-04T06:32:16.718Z,5.87
2019-04-04T06:34:45.300Z,5.92
2019-04-04T06:37:13.806Z,5.91
2019-04-04T06:39:42.367Z,5.92
2019-04-04T06:42:11.382Z,5.87
2019-04-04T06:44:39.951Z,5.52
2019-04-04T06:47:08.492Z,5.91
2019-04-04T06:49:36.960Z,5.86
2019-04-04T06:52:05.406Z,5.89
2019-04-04T06:54:33.806Z,5.81
2019-04-04T06:57:04.023Z,5.84
2019-04-04T06:59:33.304Z,5.93
2019-04-04T07:02:05.082Z,5.91
2019-04-04T07:04:35.744Z,5.91
2019-04-04T07:07:02.666Z,5.87
2019-04-04T07:09:31.246Z,5.91
2019-04-04T07:11:59.655Z,5.93
2019-04-04T07:14:30.208Z,5.80
2019-04-04T07:16:58.385Z,5.78
2019-04-04T07:19:26.926Z,5.94
2019-04-04T07:21:55.446Z,5.97
2019-04-04T07:24:23.892Z,5.95
2019-04-04T07:26:52.317Z,5.93
2019-04-04T07:29:20.774Z,5.99
2019-04-04T07:31:49.217Z,5.95
2019-04-04T07:34:17.649Z,5.95
2019-04-04T07:36:46.037Z,5.92
2019-04-04T07:39:14.472Z,5.91
2019-04-04T07:41:44.943Z,5.90
2019-04-04T07:44:13.164Z,5.91
2019-04-04T07:46:45.368Z,5.98
2019-04-04T07:49:11.809Z,6.03
2019-04-04T07:51:40.470Z,6.05
2019-04-04T07:54:09.056Z,6.02
2019-04-04T07:56:37.648Z,6.07
2019-04-04T07:59:06.050Z,6.02
2019-04-04T08:01:34.519Z,5.95
2019-04-04T08:04:03.032Z,5.99
2019-04-04T08:06:31.471Z,6.04
2019-04-04T08:08:59.977Z,5.98
2019-04-04T08:11:28.389Z,5.95
2019-04-04T08:13:56.819Z,5.99
2019-04-04T08:16:25.219Z,5.99
2019-04-04T08:18:53.718Z,6.09
2019-04-04T08:21:22.165Z,6.04
2019-04-04T08:23:50.857Z,6.08
2019-04-04T08:26:19.327Z,6.15
2019-04-04T08:28:47.747Z,6.06
2019-04-04T08:31:16.315Z,6.03
2019-04-04T08:33:44.737Z,6.05
2019-04-04T08:36:13.360Z,6.15
2019-04-04T08:38:41.775Z,6.22
2019-04-04T08:41:10.438Z,6.26
2019-04-04T08:43:38.852Z,6.32
2019-04-04T08:46:07.329Z,6.44
2019-04-04T08:48:35.755Z,6.64
2019-04-04T08:51:04.267Z,6.73
2019-04-04T08:53:39.862Z,6.70
2019-04-04T08:56:02.791Z,6.74
2019-04-04T08:58:31.186Z,6.60
2019-04-04T09:00:59.671Z,6.50
2019-04-04T09:03:28.091Z,6.54
2019-04-04T09:05:56.598Z,6.55
2019-04-04T09:08:25.203Z,6.60
2019-04-04T09:10:53.665Z,6.59
2019-04-04T09:13:22.145Z,6.47
2019-04-04T09:15:50.569Z,6.49
2019-04-04T09:18:19.000Z,6.53
2019-04-04T09:20:47.460Z,6.49
2019-04-04T09:23:15.919Z,6.52
2019-04-04T09:25:44.802Z,6.34
2019-04-04T09:28:13.201Z,6.16
2019-04-04T09:30:41.830Z,6.12
2019-04-04T09:33:10.234Z,6.16
2019-04-04T09:35:38.954Z,6.20
2019-04-04T09:38:07.367Z,6.36
2019-04-04T09:40:35.990Z,6.74
2019-04-04T09:43:04.531Z,6.68
2019-04-04T09:45:33.092Z,6.67
2019-04-04T09:48:01.511Z,6.68
2019-04-04T09:50:29.984Z,6.65
2019-04-04T09:52:58.384Z,6.47
2019-04-04T09:55:27.051Z,6.38
2019-04-04T09:57:55.542Z,5.85
2019-04-04T10:00:24.357Z,6.32
2019-04-04T10:02:53.078Z,6.24
2019-04-04T10:05:21.552Z,6.15
2019-04-04T10:07:50.209Z,6.19
2019-04-04T10:10:18.950Z,6.16
2019-04-04T10:12:47.393Z,6.16
2019-04-04T10:15:17.237Z,6.11
2019-04-04T10:17:49.112Z,6.13
2019-04-04T10:20:16.617Z,6.13
2019-04-04T10:22:45.092Z,6.01
2019-04-04T10:25:13.644Z,5.90
2019-04-04T10:27:42.187Z,5.82
2019-04-04T10:30:12.114Z,5.83
2019-04-04T10:32:40.531Z,5.90
2019-04-04T10:35:09.222Z,5.97
2019-04-04T10:37:37.659Z,5.94
2019-04-04T10:40:07.377Z,6.03
2019-04-04T10:42:36.105Z,6.19
2019-04-04T10:45:06.754Z,6.30
2019-04-04T10:47:35.207Z,6.35
2019-04-04T10:50:05.455Z,6.40
2019-04-04T10:52:33.916Z,6.21
2019-04-04T10:55:02.611Z,6.13
2019-04-04T10:57:31.101Z,6.21
2019-04-04T10:59:59.518Z,6.21
2019-04-04T11:02:28.040Z,6.20
2019-04-04T11:04:56.438Z,6.26
2019-04-04T11:07:25.118Z,6.46
2019-04-04T11:09:53.601Z,6.60
2019-04-04T11:12:22.008Z,6.59
2019-04-04T11:14:50.452Z,6.56
2019-04-04T11:17:18.827Z,6.50
2019-04-04T11:19:47.244Z,6.43
2019-04-04T11:22:15.642Z,6.56
2019-04-04T11:24:44.118Z,6.62
2019-04-04T11:27:12.763Z,6.50
2019-04-04T11:29:41.182Z,6.43
2019-04-04T11:32:09.658Z,6.41
2019-04-04T11:34:38.226Z,6.46
2019-04-04T11:37:06.665Z,6.51
2019-04-04T11:39:35.073Z,6.58
2019-04-04T11:42:03.672Z,6.68
2019-04-04T11:44:32.172Z,6.72
2019-04-04T11:47:00.741Z,6.73
2019-04-04T11:49:29.234Z,6.78
2019-04-04T11:51:57.899Z,6.79
2019-04-04T11:54:26.420Z,6.60
2019-04-04T11:56:54.969Z,6.42
2019-04-04T11:59:23.406Z,6.32
2019-04-04T12:01:52.793Z,6.13
2019-04-04T12:04:21.210Z,5.88
2019-04-04T12:06:49.656Z,6.33
2019-04-04T12:09:18.140Z,6.42
2019-04-04T12:11:46.558Z,6.36
2019-04-04T12:14:15.286Z,6.39
2019-04-04T12:16:43.680Z,6.40
2019-04-04T12:19:12.170Z,6.53
2019-04-04T12:21:40.694Z,6.52
2019-04-04T12:24:09.239Z,6.42
2019-04-04T12:26:37.668Z,6.44
2019-04-04T12:29:06.069Z,6.60
2019-04-04T12:31:34.518Z,6.70
2019-04-04T12:34:02.930Z,6.60
2019-04-04T12:36:31.607Z,6.46
2019-04-04T12:39:00.003Z,6.35
2019-04-04T12:41:28.599Z,6.28
2019-04-04T12:43:57.115Z,6.28
2019-04-04T12:46:25.533Z,6.33
2019-04-04T12:48:53.945Z,6.39
2019-04-04T12:51:22.403Z,6.47
2019-04-04T12:53:51.069Z,6.47
2019-04-04T12:56:19.625Z,6.40
2019-04-04T12:58:48.048Z,6.23
2019-04-04T13:01:16.449Z,6.24
2019-04-04T13:03:44.862Z,6.26
2019-04-04T13:06:13.334Z,6.35
2019-04-04T13:08:42.153Z,6.41
2019-04-04T13:11:10.532Z,6.43
2019-04-04T13:13:39.033Z,6.43
2019-04-04T13:16:07.423Z,6.28
2019-04-04T13:18:35.864Z,6.19
2019-04-04T13:21:04.352Z,6.34
2019-04-04T13:23:32.818Z,6.37
2019-04-04T13:26:01.225Z,6.55
2019-04-04T13:28:29.724Z,6.67
2019-04-04T13:30:58.193Z,6.71
2019-04-04T13:33:26.632Z,6.73
2019-04-04T13:35:55.180Z,6.74
2019-04-04T13:38:23.650Z,6.74
2019-04-04T13:40:52.049Z,6.68
2019-04-04T13:43:22.553Z,6.74
2019-04-04T13:45:50.583Z,6.79
2019-04-04T13:48:19.071Z,6.64
2019-04-04T13:50:47.606Z,6.59
2019-04-04T13:53:16.044Z,6.55
2019-04-04T13:55:44.449Z,6.62
2019-04-04T13:58:13.436Z,6.99
2019-04-04T14:00:41.931Z,7.20
2019-04-04T14:03:10.338Z,7.14
2019-04-04T14:05:38.900Z,7.02
2019-04-04T14:08:07.450Z,7.00
2019-04-04T14:10:35.903Z,7.21
2019-04-04T14:13:04.758Z,7.43
2019-04-04T14:15:33.314Z,7.53
2019-04-04T14:18:03.431Z,7.77
2019-04-04T14:20:32.027Z,7.83
2019-04-04T14:23:00.426Z,7.87
2019-04-04T14:25:29.543Z,8.06
2019-04-04T14:27:58.696Z,8.18
2019-04-04T14:30:27.459Z,8.32
2019-04-04T14:32:55.898Z,7.96
2019-04-04T14:35:24.343Z,7.64
2019-04-04T14:37:54.608Z,7.50
2019-04-04T14:40:23.155Z,7.32
2019-04-04T14:42:51.602Z,7.20
2019-04-04T14:45:20.080Z,7.25
2019-04-04T14:47:48.552Z,7.31
2019-04-04T14:50:17.125Z,7.56
2019-04-04T14:52:45.499Z,7.64
2019-04-04T14:55:14.147Z,7.64
2019-04-04T14:57:42.723Z,7.49
2019-04-04T15:00:15.654Z,7.45
2019-04-04T15:02:43.188Z,7.52
2019-04-04T15:05:11.783Z,7.45
2019-04-04T15:07:40.779Z,7.32
2019-04-04T15:10:09.504Z,7.22
2019-04-04T15:12:37.924Z,7.00
2019-04-04T15:15:07.703Z,6.92
2019-04-04T15:17:36.254Z,6.89
2019-04-04T15:20:05.906Z,6.76
2019-04-04T15:22:34.405Z,6.72
2019-04-04T15:25:02.881Z,6.66
2019-04-04T15:27:31.296Z,6.62
2019-04-04T15:29:59.802Z,6.62
2019-04-04T15:32:28.208Z,6.64
2019-04-04T15:34:56.690Z,6.66
2019-04-04T15:37:25.258Z,6.70
2019-04-04T15:39:53.798Z,6.78
2019-04-04T15:42:22.221Z,6.81
2019-04-04T15:44:50.655Z,6.83
2019-04-04T15:47:19.099Z,6.85
2019-04-04T15:49:47.573Z,6.82
2019-04-04T15:52:15.984Z,6.67
2019-04-04T15:54:44.399Z,6.53
2019-04-04T15:57:12.775Z,6.47
2019-04-04T15:59:41.201Z,6.41
2019-04-04T16:02:09.601Z,6.38
2019-04-04T16:04:38.023Z,6.33
2019-04-04T16:07:07.157Z,6.23
2019-04-04T16:09:35.611Z,6.12
2019-04-04T16:12:04.297Z,6.03
2019-04-04T16:14:32.713Z,6.04
2019-04-04T16:17:01.145Z,6.00
2019-04-04T16:19:29.660Z,6.07
2019-04-04T16:21:58.359Z,6.08
2019-04-04T16:24:26.743Z,6.13
2019-04-04T16:26:55.230Z,6.08
2019-04-04T16:29:23.711Z,6.10
2019-04-04T16:31:52.094Z,6.16
2019-04-04T16:34:20.525Z,6.13
2019-04-04T16:36:49.134Z,5.99
2019-04-04T16:39:17.576Z,5.95
2019-04-04T16:41:46.107Z,5.94
2019-04-04T16:44:14.551Z,5.82
2019-04-04T16:46:43.279Z,5.76
2019-04-04T16:49:11.713Z,5.76
2019-04-04T16:51:40.199Z,5.82
2019-04-04T16:54:09.078Z,5.83
2019-04-04T16:56:37.471Z,5.77
2019-04-04T16:59:06.127Z,5.75
2019-04-04T17:01:34.557Z,5.69
2019-04-04T17:04:03.537Z,5.66
2019-04-04T17:06:32.209Z,5.64
2019-04-04T17:09:00.696Z,5.59
2019-04-04T17:11:29.172Z,5.22
2019-04-04T17:13:57.832Z,5.52
2019-04-04T17:16:26.509Z,5.49
2019-04-04T17:18:54.967Z,5.52
2019-04-04T17:21:23.548Z,5.51
2019-04-04T17:23:52.084Z,5.57
2019-04-04T17:26:20.552Z,5.54
2019-04-04T17:28:49.123Z,5.47
2019-04-04T17:31:17.984Z,5.44
2019-04-04T17:33:46.490Z,5.41
2019-04-04T17:36:14.893Z,5.38
2019-04-04T17:38:43.876Z,5.31
2019-04-04T17:41:12.384Z,5.25
2019-04-04T17:43:40.777Z,5.27
2019-04-04T17:46:09.316Z,5.25
2019-04-04T17:48:38.015Z,5.23
2019-04-04T17:51:06.735Z,5.27
2019-04-04T17:53:35.460Z,5.22
2019-04-04T17:56:05.208Z,5.16
2019-04-04T17:58:33.537Z,5.20
2019-04-04T18:01:02.020Z,5.26
2019-04-04T18:03:30.447Z,5.24
2019-04-04T18:05:58.848Z,5.23
2019-04-04T18:08:27.444Z,5.23
2019-04-04T18:10:55.961Z,5.22
2019-04-04T18:13:24.398Z,5.22
2019-04-04T18:15:52.928Z,5.23
2019-04-04T18:18:21.329Z,5.23
2019-04-04T18:20:49.809Z,5.23
2019-04-04T18:23:18.379Z,5.14
2019-04-04T18:25:46.784Z,5.22
2019-04-04T18:28:15.226Z,5.21
2019-04-04T18:30:43.624Z,5.29
2019-04-04T18:33:12.129Z,5.27
2019-04-04T18:35:40.800Z,5.26
2019-04-04T18:38:09.282Z,5.35
2019-04-04T18:40:37.680Z,5.45
2019-04-04T18:43:06.362Z,5.45
2019-04-04T18:45:34.913Z,5.48
2019-04-04T18:48:03.592Z,5.42
2019-04-04T18:50:32.118Z,5.36
2019-04-04T18:53:00.602Z,5.39
2019-04-04T18:55:29.199Z,5.35
2019-04-04T18:57:57.713Z,5.26
2019-04-04T19:00:26.212Z,5.29
2019-04-04T19:02:54.831Z,5.25
2019-04-04T19:05:23.563Z,5.31
2019-04-04T19:07:52.063Z,5.35
2019-04-04T19:10:20.631Z,5.34
2019-04-04T19:12:49.250Z,5.31
2019-04-04T19:15:18.132Z,5.33
2019-04-04T19:17:56.453Z,5.26
2019-04-04T19:20:24.938Z,5.27
2019-04-04T19:22:53.691Z,5.24
2019-04-04T19:25:22.551Z,5.20
2019-04-04T19:27:50.981Z,5.21
2019-04-04T19:30:20.016Z,5.23
2019-04-04T19:32:48.630Z,5.22
2019-04-04T19:35:17.512Z,5.22
2019-04-04T19:37:45.995Z,5.25
2019-04-04T19:40:15.484Z,5.26
2019-04-04T19:42:43.974Z,5.24
2019-04-04T19:45:12.936Z,5.22
2019-04-04T19:47:41.613Z,5.18
2019-04-04T19:50:13.846Z,5.19
2019-04-04T19:52:42.406Z,5.23
2019-04-04T19:55:11.302Z,5.29
2019-04-04T19:57:39.849Z,5.25
2019-04-04T20:03:44.863Z,5.28
2019-04-04T20:06:13.595Z,5.19
2019-04-04T20:08:42.014Z,5.22
2019-04-04T20:11:10.462Z,5.27
2019-04-04T20:13:38.865Z,5.26
2019-04-04T20:16:07.380Z,5.20
2019-04-04T20:18:35.780Z,5.19
2019-04-04T20:21:04.427Z,5.17
2019-04-04T20:23:32.827Z,5.19
2019-04-04T20:26:01.406Z,5.21
2019-04-04T20:28:29.907Z,5.15
2019-04-04T20:30:58.585Z,5.28
2019-04-04T20:33:26.991Z,5.18
2019-04-04T20:35:55.548Z,5.19
2019-04-04T20:38:24.008Z,5.26
2019-04-04T20:40:52.414Z,5.21
2019-04-04T20:43:21.064Z,5.20
2019-04-04T20:45:49.544Z,5.16
2019-04-04T20:48:18.110Z,5.18
2019-04-04T20:50:46.530Z,5.22
2019-04-04T20:53:15.020Z,5.21
2019-04-04T20:55:47.256Z,5.10
2019-04-04T20:58:15.769Z,5.12
2019-04-04T21:00:44.239Z,5.13
2019-04-04T21:03:12.707Z,5.11
2019-04-04T21:05:41.302Z,5.12
2019-04-04T21:08:09.879Z,5.09
